Time;durP1;ratioP1;P1;durP2;ratioP2;P2;SDS_P1;SDS_P2;PMS_P1;PMS_P2;Temp;Humidity;BMP_temperature;BMP_pressure;BME280_temperature;BME280_humidity;BME280_pressure;Samples;Min_cycle;Max_cycle;Signal;HPM_P1;HPM_P2
2020/12/28 00:00:53;;;;;;;2.30;2.30;;;6.80;99.90;;;;;;5011593;28;20239;-74
2020/12/28 00:03:19;;;;;;;2.47;2.47;;;6.60;99.90;;;;;;5012457;28;20523;-73
2020/12/28 00:05:44;;;;;;;2.60;2.60;;;6.80;99.90;;;;;;5027854;28;20259;-76
2020/12/28 00:08:10;;;;;;;2.73;2.63;;;6.70;99.90;;;;;;5030862;28;20199;-74
2020/12/28 00:10:36;;;;;;;2.40;2.40;;;6.80;99.90;;;;;;5033216;28;20177;-74
2020/12/28 00:13:01;;;;;;;2.63;2.53;;;6.70;99.90;;;;;;5018511;28;20257;-74
2020/12/28 00:15:28;;;;;;;2.60;2.50;;;6.90;99.90;;;;;;5012172;28;20621;-74
2020/12/28 00:17:57;;;;;;;2.70;2.60;;;7.00;99.90;;;;;;5017620;28;20201;-74
2020/12/28 00:20:25;;;;;;;2.63;2.53;;;7.10;99.90;;;;;;5032947;28;20392;-74
2020/12/28 00:22:51;;;;;;;2.83;2.73;;;7.10;99.90;;;;;;5032049;28;20513;-74
2020/12/28 00:25:24;;;;;;;2.37;2.27;;;7.20;99.90;;;;;;5012712;28;20431;-74
2020/12/28 00:27:50;;;;;;;2.50;2.40;;;7.30;99.90;;;;;;5011493;28;20390;-75
2020/12/28 00:30:16;;;;;;;2.33;2.30;;;7.30;99.90;;;;;;5008995;28;20391;-74
2020/12/28 00:32:42;;;;;;;2.60;2.50;;;7.40;99.90;;;;;;5010859;28;20427;-74
2020/12/28 00:35:09;;;;;;;2.37;2.37;;;7.40;99.90;;;;;;5010975;28;20404;-74
2020/12/28 00:37:35;;;;;;;2.60;2.50;;;7.40;99.90;;;;;;5010336;28;20414;-74
2020/12/28 00:40:01;;;;;;;2.37;2.27;;;7.40;99.90;;;;;;5010485;28;20447;-74
2020/12/28 00:42:28;;;;;;;2.57;2.47;;;7.40;99.90;;;;;;5012232;28;20185;-74
2020/12/28 00:44:55;;;;;;;2.60;2.50;;;7.40;99.90;;;;;;5011652;28;20419;-74
2020/12/28 00:47:21;;;;;;;2.53;2.43;;;7.50;99.90;;;;;;5012800;28;20398;-74
2020/12/28 00:49:46;;;;;;;2.33;2.33;;;7.60;99.90;;;;;;5012388;28;20438;-76
2020/12/28 00:52:12;;;;;;;2.40;2.30;;;7.70;99.90;;;;;;5012308;28;20207;-73
2020/12/28 00:54:38;;;;;;;2.30;2.20;;;7.70;99.90;;;;;;5012379;28;20631;-73
2020/12/28 00:57:03;;;;;;;2.13;2.13;;;7.70;99.90;;;;;;5011934;28;20222;-74
2020/12/28 00:59:29;;;;;;;2.30;2.20;;;7.60;99.90;;;;;;5012225;28;20192;-74
2020/12/28 01:01:56;;;;;;;2.60;2.50;;;7.60;99.90;;;;;;5011552;28;20624;-74
2020/12/28 01:04:22;;;;;;;2.50;2.40;;;7.30;99.90;;;;;;5012065;28;20172;-74
2020/12/28 01:06:48;;;;;;;2.50;2.50;;;7.30;99.90;;;;;;5011748;28;20755;-76
2020/12/28 01:09:14;;;;;;;2.20;2.20;;;7.30;99.90;;;;;;5011145;28;20467;-74
2020/12/28 01:11:41;;;;;;;2.53;2.50;;;7.40;99.90;;;;;;5012589;28;20562;-74
2020/12/28 01:14:08;;;;;;;2.10;2.10;;;7.30;99.90;;;;;;5011669;28;20416;-74
2020/12/28 01:16:33;;;;;;;2.50;2.40;;;7.10;99.90;;;;;;5012452;28;20391;-74
2020/12/28 01:18:59;;;;;;;2.30;2.30;;;7.10;99.90;;;;;;5028547;28;20926;-72
2020/12/28 01:21:25;;;;;;;3.27;3.07;;;7.20;99.90;;;;;;5032240;28;20181;-72
2020/12/28 01:23:51;;;;;;;2.30;2.20;;;7.30;99.90;;;;;;5031165;28;20174;-75
2020/12/28 01:26:19;;;;;;;2.37;2.30;;;7.10;99.90;;;;;;5032077;28;20174;-74
2020/12/28 01:28:45;;;;;;;2.50;2.40;;;7.00;99.90;;;;;;5022713;28;20228;-74
2020/12/28 01:31:11;;;;;;;2.20;2.20;;;7.10;99.90;;;;;;5010687;28;20477;-74
2020/12/28 01:33:38;;;;;;;2.60;2.50;;;7.20;99.90;;;;;;5010792;28;20484;-74
2020/12/28 01:36:04;;;;;;;2.43;2.40;;;7.20;99.90;;;;;;5010157;28;20502;-74
2020/12/28 01:38:30;;;;;;;2.80;2.70;;;7.40;99.90;;;;;;5012028;28;20402;-75
2020/12/28 01:40:58;;;;;;;2.60;2.60;;;7.20;99.90;;;;;;5010157;28;20403;-75
2020/12/28 01:43:25;;;;;;;3.07;2.97;;;7.10;99.90;;;;;;5010682;28;20465;-74
2020/12/28 01:45:51;;;;;;;2.60;2.60;;;7.20;99.90;;;;;;5013482;28;20496;-75
2020/12/28 01:48:17;;;;;;;2.73;2.67;;;7.20;99.90;;;;;;5005331;28;21877;-74
2020/12/28 01:50:43;;;;;;;2.40;2.40;;;7.30;99.90;;;;;;5012025;28;20173;-74
2020/12/28 01:53:09;;;;;;;2.23;2.20;;;7.10;99.90;;;;;;5013876;28;20404;-75
2020/12/28 01:55:35;;;;;;;2.33;2.30;;;7.20;99.90;;;;;;5013646;28;20391;-75
2020/12/28 01:58:01;;;;;;;2.37;2.27;;;7.30;99.90;;;;;;5013567;28;20504;-75
2020/12/28 02:00:26;;;;;;;2.13;2.13;;;7.40;99.90;;;;;;5012540;28;20374;-74
2020/12/28 02:02:52;;;;;;;2.30;2.20;;;7.40;99.90;;;;;;5013776;28;20238;-75
2020/12/28 02:05:18;;;;;;;2.03;2.00;;;7.40;99.90;;;;;;5014491;28;20208;-74
2020/12/28 02:07:45;;;;;;;2.20;2.20;;;7.40;99.90;;;;;;5014183;28;20382;-74
2020/12/28 02:10:11;;;;;;;2.20;2.10;;;7.30;99.90;;;;;;5013691;28;20221;-75
2020/12/28 02:12:37;;;;;;;2.30;2.20;;;7.20;99.90;;;;;;5013284;28;20417;-74
2020/12/28 02:15:04;;;;;;;2.67;2.57;;;7.10;99.90;;;;;;5010672;28;20425;-75
2020/12/28 02:17:30;;;;;;;2.80;2.60;;;7.10;99.90;;;;;;5014039;28;20492;-75
2020/12/28 02:19:55;;;;;;;2.20;2.20;;;7.20;99.90;;;;;;5013461;28;20466;-74
2020/12/28 02:22:21;;;;;;;2.70;2.60;;;7.20;99.90;;;;;;5015182;28;20177;-74
2020/12/28 02:24:47;;;;;;;2.60;2.50;;;7.30;99.90;;;;;;5014964;28;20703;-76
2020/12/28 02:27:12;;;;;;;2.40;2.30;;;7.20;99.90;;;;;;5014641;28;20198;-75
2020/12/28 02:29:38;;;;;;;2.27;2.27;;;7.30;99.90;;;;;;4997841;28;20208;-74
2020/12/28 02:32:04;;;;;;;2.37;2.30;;;7.30;99.90;;;;;;5002915;28;20176;-74
2020/12/28 02:34:30;;;;;;;2.50;2.40;;;7.00;99.90;;;;;;5015306;28;20179;-74
2020/12/28 02:36:55;;;;;;;2.50;2.50;;;6.80;99.90;;;;;;5014627;28;20211;-75
2020/12/28 02:39:21;;;;;;;2.50;2.50;;;7.00;99.90;;;;;;5014040;28;20179;-74
2020/12/28 02:41:47;;;;;;;2.63;2.60;;;7.00;99.90;;;;;;5016169;28;20324;-74
2020/12/28 02:44:12;;;;;;;2.13;2.13;;;6.90;99.90;;;;;;5034195;28;20638;-74
2020/12/28 02:46:38;;;;;;;2.40;2.40;;;6.70;99.90;;;;;;5033703;28;20670;-74
2020/12/28 02:49:04;;;;;;;2.67;2.60;;;6.80;99.90;;;;;;5032509;28;20598;-74
2020/12/28 02:51:29;;;;;;;2.97;2.50;;;6.80;99.90;;;;;;5033499;28;20618;-74
2020/12/28 02:53:55;;;;;;;2.53;2.53;;;6.80;99.90;;;;;;5032399;28;20183;-75
2020/12/28 02:56:21;;;;;;;2.53;2.53;;;6.90;99.90;;;;;;5032476;28;20640;-74
2020/12/28 02:58:46;;;;;;;2.57;2.50;;;6.90;99.90;;;;;;5025304;28;20232;-74
2020/12/28 03:01:12;;;;;;;2.50;2.50;;;7.00;99.90;;;;;;5014028;28;20187;-74
2020/12/28 03:03:38;;;;;;;2.60;2.50;;;7.20;99.90;;;;;;5014508;28;20680;-74
2020/12/28 03:06:04;;;;;;;2.30;2.30;;;7.10;99.90;;;;;;5013896;28;20185;-74
2020/12/28 03:08:29;;;;;;;2.40;2.40;;;7.20;99.90;;;;;;5013454;28;20251;-74
2020/12/28 03:10:55;;;;;;;2.20;2.20;;;7.30;99.90;;;;;;5013848;28;20172;-74
2020/12/28 03:13:21;;;;;;;2.27;2.27;;;7.30;99.90;;;;;;4997154;28;20651;-74
2020/12/28 03:15:46;;;;;;;2.23;2.23;;;7.30;99.90;;;;;;5014791;28;20176;-74
2020/12/28 03:18:12;;;;;;;2.80;2.70;;;7.40;99.90;;;;;;5013670;28;20178;-74
2020/12/28 03:20:38;;;;;;;2.30;2.30;;;7.50;99.90;;;;;;5013399;28;20654;-74
2020/12/28 03:23:03;;;;;;;2.40;2.30;;;7.50;99.90;;;;;;5013600;28;20252;-75
2020/12/28 03:25:29;;;;;;;2.10;2.10;;;7.50;99.90;;;;;;5013183;28;20191;-74
2020/12/28 03:27:55;;;;;;;2.00;2.00;;;7.60;99.90;;;;;;5013287;28;20173;-76
2020/12/28 03:30:20;;;;;;;2.47;2.37;;;7.50;99.90;;;;;;5014226;28;20184;-74
2020/12/28 03:32:46;;;;;;;2.20;2.20;;;7.60;99.90;;;;;;5014295;28;20179;-74
2020/12/28 03:35:12;;;;;;;2.20;2.20;;;7.50;99.90;;;;;;5015863;28;20389;-74
2020/12/28 03:37:38;;;;;;;2.40;2.40;;;7.40;99.90;;;;;;5033937;28;20260;-74
2020/12/28 03:40:04;;;;;;;2.67;2.60;;;7.40;99.90;;;;;;5028157;28;20189;-75
2020/12/28 03:42:30;;;;;;;2.80;2.70;;;7.50;99.90;;;;;;5023974;28;20215;-74
2020/12/28 03:44:55;;;;;;;2.77;2.77;;;7.60;99.90;;;;;;5032603;28;20412;-77
2020/12/28 03:47:21;;;;;;;2.47;2.47;;;7.60;99.90;;;;;;5032268;28;20183;-75
2020/12/28 03:49:47;;;;;;;2.90;2.80;;;7.60;99.90;;;;;;5033617;28;20237;-75
2020/12/28 03:52:13;;;;;;;2.67;2.57;;;7.70;99.90;;;;;;5025372;28;20175;-75
2020/12/28 03:54:39;;;;;;;2.57;2.47;;;7.80;99.90;;;;;;5021136;28;20174;-74
2020/12/28 03:57:05;;;;;;;2.80;2.70;;;7.80;99.90;;;;;;5020909;28;20469;-75
2020/12/28 03:59:31;;;;;;;2.60;2.50;;;7.80;99.90;;;;;;5016135;28;20447;-75
2020/12/28 04:01:56;;;;;;;2.57;2.50;;;7.80;99.90;;;;;;5012934;28;20261;-77
2020/12/28 04:04:22;;;;;;;2.50;2.50;;;7.70;99.90;;;;;;5013628;28;20177;-74
2020/12/28 04:06:48;;;;;;;2.30;2.30;;;7.70;99.90;;;;;;4995989;28;20190;-74
2020/12/28 04:09:14;;;;;;;2.70;2.60;;;7.60;99.90;;;;;;5011925;28;20369;-75
2020/12/28 04:11:40;;;;;;;2.40;2.40;;;7.60;99.90;;;;;;5012272;28;20185;-75
2020/12/28 04:14:06;;;;;;;2.50;2.50;;;7.70;99.90;;;;;;5012909;28;20378;-75
2020/12/28 04:16:31;;;;;;;2.53;2.47;;;7.70;99.90;;;;;;5013354;28;20407;-74
2020/12/28 04:18:57;;;;;;;2.60;2.60;;;7.70;99.90;;;;;;5012713;28;20180;-77
2020/12/28 04:21:23;;;;;;;2.77;2.67;;;7.80;99.90;;;;;;5012175;28;20235;-75
2020/12/28 04:23:48;;;;;;;2.60;2.50;;;7.80;99.90;;;;;;5013342;28;20181;-74
2020/12/28 04:26:14;;;;;;;2.37;2.30;;;7.80;99.90;;;;;;5012399;28;20367;-75
2020/12/28 04:28:40;;;;;;;2.43;2.40;;;7.80;99.90;;;;;;5020115;28;20241;-74
2020/12/28 04:31:12;;;;;;;2.23;2.23;;;7.70;99.90;;;;;;5014253;28;20187;-75
2020/12/28 04:33:38;;;;;;;2.40;2.40;;;7.60;99.90;;;;;;5031341;28;20263;-74
2020/12/28 04:36:05;;;;;;;2.50;2.40;;;7.60;99.90;;;;;;5031800;28;20378;-74
2020/12/28 04:38:31;;;;;;;2.53;2.43;;;7.60;99.90;;;;;;5032759;28;20565;-74
2020/12/28 04:40:57;;;;;;;2.70;2.70;;;7.60;99.90;;;;;;5032106;28;20496;-77
2020/12/28 04:43:25;;;;;;;2.60;2.50;;;7.60;99.90;;;;;;5032515;28;20448;-75
2020/12/28 04:45:58;;;;;;;2.40;2.40;;;7.60;99.90;;;;;;5029539;28;20418;-75
2020/12/28 04:48:24;;;;;;;2.20;2.20;;;7.60;99.90;;;;;;5031389;28;20512;-75
2020/12/28 04:50:50;;;;;;;2.53;2.53;;;7.60;99.90;;;;;;5032356;28;21029;-74
2020/12/28 04:53:17;;;;;;;2.43;2.43;;;7.50;99.90;;;;;;5031729;28;21034;-74
2020/12/28 04:55:42;;;;;;;2.30;2.30;;;7.60;99.90;;;;;;5032450;28;20414;-74
2020/12/28 04:58:08;;;;;;;2.60;2.57;;;7.60;99.90;;;;;;5027113;28;20469;-74
2020/12/28 05:00:34;;;;;;;2.60;2.60;;;7.60;99.90;;;;;;5012812;28;20189;-75
2020/12/28 05:03:00;;;;;;;2.40;2.40;;;7.60;99.90;;;;;;5011772;28;20539;-77
2020/12/28 05:05:25;;;;;;;2.43;2.43;;;7.60;99.90;;;;;;5012713;28;20177;-75
2020/12/28 05:07:51;;;;;;;2.07;2.07;;;7.60;99.90;;;;;;5012438;28;20187;-75
2020/12/28 05:10:25;;;;;;;2.50;2.40;;;7.60;99.90;;;;;;5011856;28;20829;-75
2020/12/28 05:12:51;;;;;;;2.30;2.30;;;7.60;99.90;;;;;;5012863;28;20392;-74
2020/12/28 05:15:18;;;;;;;2.47;2.37;;;7.70;99.90;;;;;;5011702;28;20482;-74
2020/12/28 05:17:52;;;;;;;2.70;2.60;;;7.70;99.90;;;;;;5012504;28;20498;-75
2020/12/28 05:20:25;;;;;;;2.50;2.40;;;7.60;99.90;;;;;;5011498;28;20393;-74
2020/12/28 05:22:54;;;;;;;2.73;2.63;;;7.70;99.90;;;;;;5012492;28;20425;-75
2020/12/28 05:25:21;;;;;;;2.63;2.60;;;7.60;99.90;;;;;;5011940;28;20444;-74
2020/12/28 05:27:48;;;;;;;2.63;2.53;;;7.60;99.90;;;;;;5020625;28;20939;-74
2020/12/28 05:30:14;;;;;;;2.60;2.50;;;7.70;99.90;;;;;;5011606;28;20872;-75
2020/12/28 05:32:44;;;;;;;2.37;2.37;;;7.60;99.90;;;;;;5011149;28;20540;-74
2020/12/28 05:35:15;;;;;;;2.60;2.50;;;7.60;99.90;;;;;;5011519;28;20435;-75
2020/12/28 05:37:45;;;;;;;2.87;2.77;;;7.60;99.90;;;;;;5012260;28;20394;-75
2020/12/28 05:40:12;;;;;;;2.70;2.60;;;7.60;99.90;;;;;;5011448;28;20807;-75
2020/12/28 05:42:52;;;;;;;2.67;2.57;;;7.70;99.90;;;;;;5011997;28;20455;-74
2020/12/28 05:45:18;;;;;;;2.80;2.70;;;7.70;99.90;;;;;;5011508;28;20408;-75
2020/12/28 05:47:53;;;;;;;2.60;2.50;;;7.70;99.90;;;;;;5022183;28;20415;-74
2020/12/28 05:50:24;;;;;;;2.60;2.50;;;7.70;99.90;;;;;;5029861;28;20389;-75
2020/12/28 05:52:55;;;;;;;2.90;2.80;;;7.70;99.90;;;;;;5031849;28;20575;-75
2020/12/28 05:55:26;;;;;;;3.33;3.13;;;7.80;99.90;;;;;;5031001;28;20428;-74
2020/12/28 05:57:54;;;;;;;3.00;2.90;;;7.70;99.90;;;;;;5029972;28;20985;-75
2020/12/28 06:00:20;;;;;;;2.87;2.77;;;7.80;99.90;;;;;;5011021;28;20409;-75
2020/12/28 06:02:46;;;;;;;2.93;2.83;;;7.70;99.90;;;;;;5011885;28;20408;-75
2020/12/28 06:05:14;;;;;;;2.80;2.60;;;7.70;99.90;;;;;;5009481;28;20779;-75
2020/12/28 06:07:40;;;;;;;2.90;2.80;;;7.80;99.90;;;;;;5019486;28;20197;-75
2020/12/28 06:10:07;;;;;;;2.70;2.60;;;7.80;99.90;;;;;;5027130;28;20463;-76
2020/12/28 06:12:33;;;;;;;2.73;2.63;;;7.70;99.90;;;;;;5011970;28;20389;-75
2020/12/28 06:14:59;;;;;;;2.77;2.67;;;7.70;99.90;;;;;;5012029;28;20399;-75
2020/12/28 06:17:37;;;;;;;2.77;2.67;;;7.70;99.90;;;;;;5013982;28;20403;-75
2020/12/28 06:20:05;;;;;;;2.80;2.70;;;7.70;99.90;;;;;;5029953;28;21040;-77
2020/12/28 06:22:32;;;;;;;2.70;2.60;;;7.80;99.90;;;;;;5012747;28;20424;-74
2020/12/28 06:24:59;;;;;;;2.73;2.63;;;7.80;99.90;;;;;;5012116;28;20900;-74
2020/12/28 06:27:32;;;;;;;2.40;2.30;;;7.80;99.90;;;;;;5011064;28;20417;-75
2020/12/28 06:30:12;;;;;;;2.70;2.60;;;7.70;99.90;;;;;;5012689;28;20779;-75
2020/12/28 06:32:39;;;;;;;2.93;2.73;;;7.70;99.90;;;;;;5010665;28;20454;-74
2020/12/28 06:35:08;;;;;;;2.60;2.40;;;7.60;99.90;;;;;;5014863;28;20511;-77
2020/12/28 06:37:42;;;;;;;3.00;2.90;;;7.60;99.90;;;;;;5015163;28;20407;-74
2020/12/28 06:40:10;;;;;;;2.60;2.50;;;7.70;99.90;;;;;;5017885;28;20451;-75
2020/12/28 06:42:35;;;;;;;2.70;2.60;;;7.80;99.90;;;;;;5021087;28;20415;-74
2020/12/28 06:45:15;;;;;;;3.73;3.30;;;7.80;99.90;;;;;;5015164;28;20427;-74
2020/12/28 06:47:42;;;;;;;2.77;2.67;;;7.80;99.90;;;;;;4995552;28;20249;-74
2020/12/28 06:50:08;;;;;;;3.20;3.10;;;7.90;99.90;;;;;;4994599;28;20544;-75
2020/12/28 06:52:34;;;;;;;4.53;4.33;;;7.90;99.90;;;;;;4994124;28;20499;-74
2020/12/28 06:55:12;;;;;;;3.20;3.10;;;7.90;99.90;;;;;;4995037;28;20887;-75
2020/12/28 06:57:38;;;;;;;2.90;2.80;;;7.90;99.90;;;;;;4995449;28;20222;-74
2020/12/28 07:00:06;;;;;;;3.90;3.70;;;8.00;99.90;;;;;;4998438;28;20432;-77
2020/12/28 07:02:32;;;;;;;3.20;3.10;;;7.90;99.90;;;;;;5031778;28;20435;-75
2020/12/28 07:05:02;;;;;;;3.60;3.40;;;8.00;99.90;;;;;;5034547;28;20405;-74
2020/12/28 07:07:38;;;;;;;2.93;2.83;;;8.00;99.90;;;;;;5033565;28;20398;-75
2020/12/28 07:10:04;;;;;;;3.20;3.10;;;7.90;99.90;;;;;;5033268;28;20443;-77
2020/12/28 07:12:29;;;;;;;3.60;3.50;;;7.80;99.90;;;;;;5049309;28;20419;-74
2020/12/28 07:15:02;;;;;;;3.30;3.20;;;7.80;99.90;;;;;;5032781;28;20209;-74
2020/12/28 07:17:28;;;;;;;3.20;3.10;;;7.70;99.90;;;;;;5024556;28;20178;-74
2020/12/28 07:20:02;;;;;;;3.30;3.10;;;7.50;99.90;;;;;;5017403;28;21000;-75
2020/12/28 07:22:33;;;;;;;3.30;3.20;;;7.40;99.90;;;;;;5010116;28;20917;-75
2020/12/28 07:24:58;;;;;;;3.77;3.30;;;7.50;99.90;;;;;;5019881;28;20979;-74
2020/12/28 07:27:24;;;;;;;2.80;2.80;;;7.50;99.90;;;;;;5032221;28;20462;-75
2020/12/28 07:29:51;;;;;;;3.40;3.30;;;7.60;99.90;;;;;;5021107;28;20556;-75
2020/12/28 07:32:18;;;;;;;3.20;3.10;;;7.50;99.90;;;;;;5019233;28;20186;-75
2020/12/28 07:34:51;;;;;;;3.67;3.47;;;7.50;99.90;;;;;;5023803;28;20736;-75
2020/12/28 07:37:18;;;;;;;3.53;3.43;;;7.60;99.90;;;;;;5013395;28;20518;-75
2020/12/28 07:39:47;;;;;;;3.20;3.00;;;7.60;99.90;;;;;;5021818;28;20423;-73
2020/12/28 07:42:24;;;;;;;3.33;3.23;;;7.60;99.90;;;;;;5012374;28;20428;-74
2020/12/28 07:44:58;;;;;;;3.10;3.00;;;7.60;99.90;;;;;;5013432;28;20428;-73
2020/12/28 07:47:53;;;;;;;2.97;2.87;;;7.50;99.90;;;;;;5011515;28;20466;-74
2020/12/28 07:50:19;;;;;;;4.30;4.10;;;7.40;99.90;;;;;;5013093;28;20777;-76
2020/12/28 07:52:58;;;;;;;4.47;4.27;;;7.60;99.90;;;;;;5013724;28;20386;-77
2020/12/28 07:55:26;;;;;;;3.97;3.87;;;8.10;99.90;;;;;;5014004;28;20491;-77
2020/12/28 07:58:17;;;;;;;4.00;3.90;;;8.30;99.90;;;;;;5030002;28;20456;-77
2020/12/28 08:00:46;;;;;;;3.67;3.57;;;8.40;99.90;;;;;;5028997;28;20766;-77
2020/12/28 08:03:31;;;;;;;3.77;3.67;;;8.60;99.90;;;;;;5032748;28;20775;-76
2020/12/28 08:06:05;;;;;;;3.87;3.77;;;8.70;99.90;;;;;;5033389;28;20417;-75
2020/12/28 08:08:31;;;;;;;5.10;4.70;;;9.00;99.90;;;;;;5020977;28;21258;-75
2020/12/28 08:10:59;;;;;;;5.03;4.73;;;9.40;99.90;;;;;;5016092;28;20471;-75
2020/12/28 08:13:36;;;;;;;5.23;4.90;;;9.70;99.90;;;;;;5026389;28;20225;-75
2020/12/28 08:16:09;;;;;;;5.50;5.10;;;10.30;99.90;;;;;;5019376;28;20426;-75
2020/12/28 08:18:53;;;;;;;14.80;13.70;;;10.70;99.90;;;;;;5026384;28;20422;-74
2020/12/28 08:21:19;;;;;;;5.80;5.50;;;10.70;99.80;;;;;;5030142;28;20414;-74
2020/12/28 08:23:56;;;;;;;3.87;3.77;;;10.60;97.10;;;;;;5013524;28;20437;-75
2020/12/28 08:26:27;;;;;;;3.23;3.10;;;10.60;96.10;;;;;;5012499;28;20415;-76
2020/12/28 08:28:55;;;;;;;3.30;3.20;;;10.50;94.80;;;;;;5013009;28;20469;-74
2020/12/28 08:31:33;;;;;;;3.60;3.40;;;10.40;95.30;;;;;;5032054;28;20441;-74
2020/12/28 08:34:04;;;;;;;4.50;3.37;;;10.20;95.10;;;;;;5014123;28;20422;-75
2020/12/28 08:36:31;;;;;;;3.80;3.57;;;10.20;95.80;;;;;;5012202;28;20417;-74
2020/12/28 08:38:57;;;;;;;3.73;3.60;;;10.20;95.80;;;;;;5013016;28;20414;-74
2020/12/28 08:41:24;;;;;;;2.33;2.23;;;9.70;96.30;;;;;;5011659;28;20445;-75
2020/12/28 08:43:50;;;;;;;2.43;2.33;;;9.70;97.00;;;;;;5004385;28;20806;-75
2020/12/28 08:46:23;;;;;;;2.20;2.10;;;9.80;99.50;;;;;;5009605;28;20422;-75
2020/12/28 08:48:49;;;;;;;2.80;2.70;;;9.80;97.90;;;;;;5018966;28;20453;-74
2020/12/28 08:51:16;;;;;;;2.93;2.73;;;9.90;97.60;;;;;;5021134;28;20503;-75
2020/12/28 08:53:51;;;;;;;3.00;2.83;;;10.00;95.30;;;;;;5012357;28;20171;-75
2020/12/28 08:56:17;;;;;;;3.20;3.10;;;10.10;95.40;;;;;;5010756;28;20987;-75
2020/12/28 08:58:44;;;;;;;2.60;2.50;;;10.40;94.90;;;;;;5015467;28;20458;-74
2020/12/28 09:01:10;;;;;;;3.00;2.90;;;10.70;94.20;;;;;;5022382;28;20454;-77
2020/12/28 09:03:37;;;;;;;2.70;2.60;;;11.40;96.20;;;;;;5012985;28;20915;-83
2020/12/28 09:06:04;;;;;;;3.83;3.53;;;12.00;93.80;;;;;;5011495;28;20444;-74
2020/12/28 09:08:30;;;;;;;2.77;2.67;;;13.10;95.90;;;;;;5011660;28;20459;-75
2020/12/28 09:10:57;;;;;;;2.80;2.60;;;14.40;95.30;;;;;;5016350;28;20437;-74
2020/12/28 09:13:23;;;;;;;3.10;3.00;;;15.60;90.10;;;;;;5029302;28;20431;-75
2020/12/28 09:15:48;;;;;;;3.40;3.20;;;16.60;86.00;;;;;;5031591;28;20429;-74
2020/12/28 09:18:14;;;;;;;2.90;2.80;;;17.30;76.20;;;;;;5031504;28;20423;-75
2020/12/28 09:20:40;;;;;;;2.40;2.40;;;17.80;66.00;;;;;;5032145;28;20213;-72
2020/12/28 09:23:06;;;;;;;3.10;2.90;;;18.30;64.60;;;;;;5031684;28;20178;-72
2020/12/28 09:25:31;;;;;;;15.63;14.27;;;18.90;61.10;;;;;;5029421;28;20178;-73
2020/12/28 09:27:57;;;;;;;32.67;26.30;;;18.90;59.20;;;;;;5008293;28;20702;-72
2020/12/28 09:30:23;;;;;;;5.43;5.03;;;18.80;60.10;;;;;;5011159;28;20266;-72
2020/12/28 09:32:50;;;;;;;3.27;3.10;;;19.20;59.20;;;;;;5009888;28;20193;-71
2020/12/28 09:35:17;;;;;;;3.20;3.10;;;19.50;57.70;;;;;;5016271;28;20418;-77
2020/12/28 09:37:42;;;;;;;3.00;2.90;;;19.00;57.30;;;;;;5026452;28;20428;-74
2020/12/28 09:40:08;;;;;;;3.60;3.40;;;18.90;57.90;;;;;;5026541;28;20418;-74
2020/12/28 09:42:34;;;;;;;3.37;3.27;;;19.30;57.40;;;;;;5011545;28;20167;-74
2020/12/28 09:45:00;;;;;;;3.13;3.03;;;19.10;56.90;;;;;;5012595;28;20418;-74
2020/12/28 09:47:26;;;;;;;2.87;2.77;;;18.50;57.60;;;;;;5015275;28;20229;-75
2020/12/28 09:49:52;;;;;;;3.23;3.13;;;17.80;57.60;;;;;;5031207;28;20662;-74
2020/12/28 09:52:18;;;;;;;3.30;3.10;;;18.00;59.30;;;;;;5026840;28;20429;-75
2020/12/28 09:54:43;;;;;;;3.50;3.30;;;18.60;58.10;;;;;;5016989;28;20178;-75
2020/12/28 09:57:09;;;;;;;3.20;3.10;;;18.50;57.80;;;;;;5010631;28;20679;-74
2020/12/28 09:59:39;;;;;;;3.03;2.90;;;18.70;57.20;;;;;;5020854;28;20652;-74
2020/12/28 10:02:06;;;;;;;3.60;3.50;;;19.00;57.30;;;;;;5031756;28;20178;-74
2020/12/28 10:04:31;;;;;;;3.93;3.83;;;19.70;56.70;;;;;;5030985;28;20397;-73
2020/12/28 10:06:57;;;;;;;4.20;4.00;;;20.70;55.40;;;;;;5020723;28;20435;-74
2020/12/28 10:09:23;;;;;;;3.87;3.73;;;21.70;53.40;;;;;;5016037;28;20203;-74
2020/12/28 10:11:49;;;;;;;3.70;3.50;;;22.30;51.60;;;;;;5015529;28;20429;-74
2020/12/28 10:14:15;;;;;;;3.60;3.50;;;22.00;50.30;;;;;;4997970;28;20182;-76
2020/12/28 10:16:42;;;;;;;105.67;81.30;;;20.40;52.70;;;;;;5015282;28;20206;-74
2020/12/28 10:19:08;;;;;;;112.33;87.57;;;20.20;52.30;;;;;;5018965;28;20461;-74
2020/12/28 10:21:34;;;;;;;7.93;7.30;;;19.80;53.20;;;;;;5026519;28;20476;-74
2020/12/28 10:23:59;;;;;;;3.30;3.20;;;19.20;53.60;;;;;;5026872;28;20423;-74
2020/12/28 10:26:27;;;;;;;3.80;3.70;;;17.10;56.60;;;;;;5014346;28;20183;-74
2020/12/28 10:28:55;;;;;;;3.30;3.20;;;16.70;58.80;;;;;;5021669;28;20183;-74
2020/12/28 10:31:21;;;;;;;3.40;3.30;;;16.40;59.10;;;;;;5014423;28;20432;-75
2020/12/28 10:33:49;;;;;;;2.80;2.70;;;16.00;59.60;;;;;;5015216;28;20730;-74
2020/12/28 10:36:20;;;;;;;2.90;2.80;;;15.20;61.20;;;;;;5015018;28;20451;-74
2020/12/28 10:38:53;;;;;;;2.93;2.83;;;14.70;62.70;;;;;;5011210;28;20500;-75
2020/12/28 10:41:29;;;;;;;3.27;3.17;;;14.30;64.30;;;;;;5033379;28;20439;-76
2020/12/28 10:43:56;;;;;;;2.60;2.53;;;13.70;66.50;;;;;;5034948;28;20396;-74
2020/12/28 10:46:23;;;;;;;2.97;2.87;;;13.30;68.30;;;;;;5033958;28;20427;-74
2020/12/28 10:48:49;;;;;;;3.40;3.20;;;12.90;69.60;;;;;;5021814;28;20419;-74
2020/12/28 10:51:14;;;;;;;3.27;3.07;;;12.60;71.70;;;;;;5014758;28;20445;-73
2020/12/28 10:53:40;;;;;;;2.90;2.80;;;12.50;73.70;;;;;;5012817;28;20682;-73
2020/12/28 10:56:07;;;;;;;3.30;3.10;;;12.10;75.20;;;;;;5023596;28;20243;-71
2020/12/28 10:58:35;;;;;;;2.90;2.80;;;12.20;75.60;;;;;;5011313;28;21015;-72
2020/12/28 11:01:04;;;;;;;3.00;2.83;;;12.20;76.00;;;;;;5010868;28;20425;-72
2020/12/28 11:03:30;;;;;;;3.07;2.97;;;12.20;76.20;;;;;;5029562;28;20417;-73
2020/12/28 11:05:55;;;;;;;4.30;3.50;;;12.20;76.30;;;;;;5029213;28;20448;-71
2020/12/28 11:08:21;;;;;;;9.53;8.67;;;12.20;76.70;;;;;;5011686;28;20186;-73
2020/12/28 11:10:47;;;;;;;155.60;93.03;;;11.70;76.10;;;;;;5013086;28;20271;-74
2020/12/28 11:13:12;;;;;;;4.80;4.50;;;11.40;94.80;;;;;;5014418;28;20186;-74
2020/12/28 11:15:38;;;;;;;4.27;4.00;;;11.40;97.70;;;;;;5030903;28;20836;-74
2020/12/28 11:18:05;;;;;;;4.50;4.20;;;11.30;98.10;;;;;;5025988;28;20228;-76
2020/12/28 11:20:30;;;;;;;6.50;5.53;;;11.20;99.90;;;;;;5033302;28;20270;-73
2020/12/28 11:22:56;;;;;;;4.57;4.27;;;10.90;95.40;;;;;;5019856;28;20517;-73
2020/12/28 11:25:22;;;;;;;4.00;3.80;;;10.90;99.90;;;;;;5019574;28;20184;-77
2020/12/28 11:27:48;;;;;;;5.33;4.63;;;11.10;96.20;;;;;;5013950;28;20263;-73
2020/12/28 11:30:14;;;;;;;3.70;3.40;;;11.00;99.00;;;;;;5022359;28;20189;-74
2020/12/28 11:32:41;;;;;;;4.47;4.07;;;10.80;93.80;;;;;;5011192;28;20424;-75
2020/12/28 11:35:07;;;;;;;3.97;3.67;;;11.10;99.70;;;;;;5011641;28;20186;-77
2020/12/28 11:37:32;;;;;;;3.33;3.13;;;11.20;97.00;;;;;;5011952;28;20455;-75
2020/12/28 11:39:58;;;;;;;3.17;3.07;;;11.40;94.60;;;;;;5012607;28;20558;-75
2020/12/28 11:42:28;;;;;;;3.80;2.97;;;11.40;94.20;;;;;;5009147;28;20193;-75
2020/12/28 11:44:54;;;;;;;3.60;3.30;;;11.40;96.20;;;;;;5012027;28;20426;-74
2020/12/28 11:47:20;;;;;;;3.00;2.90;;;11.70;95.20;;;;;;5012767;28;20494;-75
2020/12/28 11:49:46;;;;;;;2.97;2.77;;;11.90;90.80;;;;;;5013579;28;20258;-73
2020/12/28 11:52:13;;;;;;;3.47;3.17;;;11.90;86.00;;;;;;5013298;28;20186;-72
2020/12/28 11:54:39;;;;;;;3.63;3.43;;;11.80;84.60;;;;;;4996533;28;20182;-71
2020/12/28 11:57:05;;;;;;;3.17;3.07;;;11.10;83.40;;;;;;4997160;28;20425;-72
2020/12/28 11:59:30;;;;;;;3.40;3.17;;;10.90;85.10;;;;;;5010265;28;20246;-73
2020/12/28 12:01:56;;;;;;;2.57;2.47;;;10.80;86.10;;;;;;5010759;28;20528;-75
2020/12/28 12:04:48;;;;;;;3.10;2.90;;;10.80;87.00;;;;;;5009982;28;20188;-73
2020/12/28 12:07:07;;;;;;;3.33;3.13;;;10.80;86.80;;;;;;5011606;28;20240;-72
2020/12/28 12:09:33;;;;;;;3.00;2.90;;;10.60;86.40;;;;;;5013739;28;20422;-72
2020/12/28 12:11:59;;;;;;;3.10;2.90;;;10.60;88.00;;;;;;5012992;28;20277;-72
2020/12/28 12:14:25;;;;;;;2.70;2.60;;;10.80;88.00;;;;;;5014273;28;20518;-73
2020/12/28 12:16:52;;;;;;;3.20;3.10;;;11.00;89.00;;;;;;5012708;28;20179;-74
2020/12/28 12:19:18;;;;;;;2.80;2.70;;;11.10;87.80;;;;;;5013247;28;20203;-72
2020/12/28 12:21:43;;;;;;;2.20;2.10;;;11.20;87.60;;;;;;5012518;28;20435;-72
2020/12/28 12:24:09;;;;;;;54.70;35.43;;;11.20;86.10;;;;;;5010331;28;20645;-72
2020/12/28 12:26:35;;;;;;;253.93;138.13;;;11.40;87.50;;;;;;5010847;28;20190;-72
2020/12/28 12:29:03;;;;;;;3.10;2.70;;;11.60;86.80;;;;;;5012011;28;20220;-76
2020/12/28 12:31:28;;;;;;;2.90;2.80;;;11.50;84.30;;;;;;5010401;28;20441;-72
2020/12/28 12:33:54;;;;;;;3.50;3.40;;;11.30;84.80;;;;;;5012913;28;20946;-75
2020/12/28 12:36:20;;;;;;;3.80;3.60;;;11.10;84.70;;;;;;5011520;28;20188;-72
2020/12/28 12:38:46;;;;;;;3.00;2.90;;;10.90;85.10;;;;;;5012277;28;20590;-72
2020/12/28 12:41:16;;;;;;;3.67;3.57;;;10.80;85.40;;;;;;5010774;28;20224;-72
2020/12/28 12:43:42;;;;;;;3.50;3.40;;;10.50;86.20;;;;;;5011599;28;20688;-73
2020/12/28 12:46:09;;;;;;;3.73;3.60;;;10.50;87.30;;;;;;5011372;28;20412;-72
2020/12/28 12:48:38;;;;;;;4.13;3.93;;;10.30;87.20;;;;;;5012060;28;20430;-72
2020/12/28 12:51:04;;;;;;;59.63;43.90;;;10.10;88.00;;;;;;5010935;28;20459;-74
2020/12/28 12:53:29;;;;;;;76.77;45.40;;;10.00;88.50;;;;;;4990984;28;20420;-75